USPP 170200Z 22007MPS CAVOK 07/M01 Q1014 R21/090060 NOSIG RMK QFE750
QNH:(hPa/inHg/mmHg)1014 / 29.94 / 761
QFE:(hPa/inHg/mmHg)999 / 29.50 / 749
Temperature7
Dew Point-1
Visibility> 10000
WeatherCAVOK
Cloud Cover
Transition Height1200 m./4400 ft.
Transition LevelFL50
SQUAWK